Time;durP1;ratioP1;P1;durP2;ratioP2;P2;SDS_P1;SDS_P2;PMS_P1;PMS_P2;Temp;Humidity;BMP_temperature;BMP_pressure;BME280_temperature;BME280_humidity;BME280_pressure;Samples;Min_cycle;Max_cycle;Signal;HPM_P1;HPM_P2
2023/09/26 00:02:04;;;;;;;1.15;1.00;;;;;;;17.52;88.77;100409.47;5075300;28;20049;-62
2023/09/26 00:04:33;;;;;;;1.35;1.05;;;;;;;17.55;88.81;100413.72;5075827;28;20045;-62
2023/09/26 00:07:02;;;;;;;1.65;1.30;;;;;;;17.54;88.72;100412.06;5075747;28;20037;-62
2023/09/26 00:09:31;;;;;;;3.30;0.90;;;;;;;17.53;88.85;100406.03;5075991;28;20040;-63
2023/09/26 00:12:02;;;;;;;0.40;0.40;;;;;;;17.52;88.70;100408.63;5075629;28;20047;-62
2023/09/26 00:14:31;;;;;;;2.05;1.40;;;;;;;17.51;88.88;100406.91;5076291;28;20044;-63
2023/09/26 00:17:01;;;;;;;1.67;1.45;;;;;;;17.53;88.92;100405.16;5075557;28;20037;-62
2023/09/26 00:19:30;;;;;;;1.20;1.10;;;;;;;17.51;88.96;100406.91;5075501;28;20080;-62
2023/09/26 00:21:59;;;;;;;1.23;1.13;;;;;;;17.54;89.14;100414.63;5075465;28;20140;-63
2023/09/26 00:24:29;;;;;;;0.82;0.82;;;;;;;17.54;89.30;100406.88;5075836;28;20040;-62
2023/09/26 00:26:58;;;;;;;8.98;1.48;;;;;;;17.57;89.31;100415.41;5076261;28;20378;-62
2023/09/26 00:29:27;;;;;;;0.98;0.88;;;;;;;17.54;89.30;100414.63;5075398;28;20037;-62
2023/09/26 00:31:56;;;;;;;0.82;0.82;;;;;;;17.54;89.40;100417.22;5074363;28;20369;-62
2023/09/26 00:34:28;;;;;;;0.70;0.68;;;;;;;17.53;89.44;100420.66;5075373;28;20040;-62
2023/09/26 00:36:56;;;;;;;4.80;1.02;;;;;;;17.52;89.55;100409.47;5075232;28;20052;-63
2023/09/26 00:39:26;;;;;;;0.80;0.80;;;;;;;17.51;89.55;100414.66;5075117;28;20059;-62
2023/09/26 00:41:55;;;;;;;1.98;1.35;;;;;;;17.51;89.55;100417.22;5075067;28;20043;-63
2023/09/26 00:44:24;;;;;;;0.73;0.73;;;;;;;17.52;89.73;100413.78;5073724;28;20052;-63
2023/09/26 00:46:53;;;;;;;1.38;1.17;;;;;;;17.44;89.66;100414.72;5073740;28;20049;-63
2023/09/26 00:49:22;;;;;;;1.23;1.13;;;;;;;17.40;89.71;100410.50;5073959;28;20576;-62
2023/09/26 00:51:54;;;;;;;0.88;0.88;;;;;;;17.41;89.70;100401.91;5075177;28;20507;-62
2023/09/26 00:55:15;;;;;;;0.60;0.60;;;;;;;17.37;89.88;100405.38;5074819;28;20446;-63
2023/09/26 00:57:46;;;;;;;1.35;1.20;;;;;;;17.42;89.88;100407.88;5075046;28;20470;-62
2023/09/26 01:00:19;;;;;;;1.38;0.98;;;;;;;17.43;89.86;100407.88;5074802;28;20056;-62
2023/09/26 01:02:48;;;;;;;1.15;1.05;;;;;;;17.43;90.05;100410.47;5073487;28;20135;-62
2023/09/26 01:05:18;;;;;;;1.80;1.13;;;;;;;17.43;89.99;100410.47;5074928;28;20056;-62
2023/09/26 01:07:48;;;;;;;2.03;1.20;;;;;;;17.44;89.84;100407.00;5073729;28;20102;-63
2023/09/26 01:10:18;;;;;;;1.70;1.45;;;;;;;17.46;89.82;100408.69;5074975;28;20138;-63
2023/09/26 01:12:47;;;;;;;2.75;1.77;;;;;;;17.43;89.57;100405.31;5072303;28;20033;-63
2023/09/26 01:15:31;;;;;;;1.25;1.15;;;;;;;17.42;89.63;100407.88;5074416;28;20048;-63
2023/09/26 01:18:00;;;;;;;1.42;1.25;;;;;;;17.38;89.67;100401.09;5074416;28;20052;-62
2023/09/26 01:20:29;;;;;;;0.80;0.80;;;;;;;17.39;89.80;100403.66;5074319;28;20072;-63
2023/09/26 01:23:05;;;;;;;4.30;2.20;;;;;;;17.39;89.58;100403.66;5074799;28;20048;-62
2023/09/26 01:25:36;;;;;;;0.60;0.60;;;;;;;17.42;89.65;100402.72;5073445;28;20292;-62
2023/09/26 01:28:07;;;;;;;0.85;0.82;;;;;;;17.42;89.65;100403.59;5073177;28;20492;-62
2023/09/26 01:30:38;;;;;;;0.70;0.70;;;;;;;17.42;89.63;100405.31;5074165;28;20045;-62
2023/09/26 01:33:11;;;;;;;0.32;0.32;;;;;;;17.42;89.67;100403.59;5074435;28;20404;-62
2023/09/26 01:35:40;;;;;;;7.88;1.77;;;;;;;17.44;89.72;100404.41;5072774;28;20051;-62
2023/09/26 01:38:09;;;;;;;0.70;0.70;;;;;;;17.42;89.65;100388.09;5073899;28;20044;-62
2023/09/26 01:40:41;;;;;;;1.45;1.33;;;;;;;17.40;89.62;100400.19;5074656;28;20449;-62
2023/09/26 01:43:10;;;;;;;0.85;0.82;;;;;;;17.39;89.68;100395.91;5073775;28;20063;-63
2023/09/26 01:45:38;;;;;;;0.77;0.75;;;;;;;17.39;89.82;100401.06;5073835;28;20080;-63
2023/09/26 01:48:09;;;;;;;0.80;0.80;;;;;;;17.40;89.71;100395.03;5073807;28;20075;-62
2023/09/26 01:50:39;;;;;;;1.38;1.15;;;;;;;17.39;89.90;100398.50;5072722;28;20277;-63
2023/09/26 01:53:13;;;;;;;1.65;1.48;;;;;;;17.36;89.84;100398.53;5072588;28;20052;-62
2023/09/26 01:55:43;;;;;;;0.85;0.77;;;;;;;17.37;90.05;100399.41;5074326;28;20544;-62
2023/09/26 01:58:12;;;;;;;0.98;0.60;;;;;;;17.36;90.16;100393.38;5073793;28;20056;-63
2023/09/26 02:00:41;;;;;;;1.63;1.43;;;;;;;17.32;90.24;100391.69;5072495;28;20116;-63
2023/09/26 02:03:10;;;;;;;0.50;0.50;;;;;;;17.35;90.21;100401.97;5074190;28;20040;-62
2023/09/26 02:05:38;;;;;;;0.80;0.80;;;;;;;17.34;90.29;100395.13;5073693;28;20048;-63
2023/09/26 02:08:08;;;;;;;1.20;1.08;;;;;;;17.38;90.53;100395.91;5073821;28;20037;-62
2023/09/26 02:10:36;;;;;;;1.20;1.10;;;;;;;17.36;90.31;100395.97;5072577;28;20496;-63
2023/09/26 02:13:08;;;;;;;0.70;0.70;;;;;;;17.34;90.38;100399.44;5072395;28;20757;-62
2023/09/26 02:15:38;;;;;;;0.60;0.60;;;;;;;17.29;90.49;100391.78;5073516;28;20045;-63
2023/09/26 02:18:07;;;;;;;0.95;0.95;;;;;;;17.27;90.17;100393.53;5073481;28;20060;-62
2023/09/26 02:20:36;;;;;;;1.00;0.95;;;;;;;17.26;90.44;100396.97;5073409;28;20059;-63
2023/09/26 02:23:05;;;;;;;0.40;0.40;;;;;;;17.22;90.58;100400.50;5073663;28;20071;-62
2023/09/26 02:25:34;;;;;;;0.63;0.63;;;;;;;17.22;90.59;100394.47;5073110;28;20059;-62
2023/09/26 02:28:03;;;;;;;0.70;0.70;;;;;;;17.25;90.67;100392.69;5072225;28;20048;-62
2023/09/26 02:30:33;;;;;;;0.75;0.75;;;;;;;17.24;90.41;100398.75;5073272;28;20037;-63
2023/09/26 02:33:02;;;;;;;1.33;1.08;;;;;;;17.24;90.58;100405.63;5073060;28;20077;-62
2023/09/26 02:35:31;;;;;;;0.85;0.85;;;;;;;17.20;90.54;100402.22;5072075;28;20036;-63
2023/09/26 02:38:00;;;;;;;1.45;1.35;;;;;;;17.17;90.50;100402.31;5073286;28;20059;-62
2023/09/26 02:40:32;;;;;;;0.95;0.82;;;;;;;17.15;90.46;100398.03;5073197;28;20083;-62
2023/09/26 02:43:01;;;;;;;1.27;1.17;;;;;;;17.13;90.23;100395.47;5073448;28;20422;-63
2023/09/26 02:45:30;;;;;;;1.38;1.27;;;;;;;17.10;90.67;100403.28;5073197;28;20044;-62
2023/09/26 02:48:00;;;;;;;2.72;1.27;;;;;;;17.05;90.81;100397.34;5073494;28;20033;-62
2023/09/26 02:50:30;;;;;;;1.55;0.90;;;;;;;17.06;90.91;100399.03;5073178;28;20522;-62
2023/09/26 02:52:59;;;;;;;1.42;1.27;;;;;;;17.07;90.96;100408.47;5073035;28;20049;-63
2023/09/26 02:55:29;;;;;;;0.75;0.75;;;;;;;17.11;90.96;100407.53;5073155;28;20060;-63
2023/09/26 02:57:58;;;;;;;1.10;0.80;;;;;;;17.13;90.82;100405.78;5072751;28;20045;-63
2023/09/26 03:00:28;;;;;;;0.93;0.93;;;;;;;17.11;90.74;100402.38;5073108;28;20045;-63
2023/09/26 03:02:57;;;;;;;1.15;1.05;;;;;;;17.11;90.79;100404.09;5073003;28;20041;-62
2023/09/26 03:05:29;;;;;;;1.02;0.95;;;;;;;17.10;90.62;100403.28;5073563;28;20127;-62
2023/09/26 03:07:58;;;;;;;2.20;0.95;;;;;;;17.08;90.56;100402.44;5073069;28;20048;-62
2023/09/26 03:10:27;;;;;;;;;;;;;;;17.10;90.62;100399.84;5073906;28;20123;-63
2023/09/26 03:12:56;;;;;;;0.63;0.63;;;;;;;17.09;90.46;100404.13;5073133;28;20356;-62
2023/09/26 03:15:25;;;;;;;0.60;0.60;;;;;;;17.08;90.29;100397.28;5072889;28;20048;-62
2023/09/26 03:17:54;;;;;;;0.50;0.50;;;;;;;17.08;90.21;100397.28;5071728;28;20056;-62
2023/09/26 03:20:23;;;;;;;10.43;2.17;;;;;;;17.07;90.41;100399.88;5072953;28;20047;-62
2023/09/26 03:22:53;;;;;;;1.20;1.00;;;;;;;17.07;90.33;100395.56;5072771;28;20045;-62
2023/09/26 03:25:23;;;;;;;1.30;1.20;;;;;;;17.07;90.20;100389.56;5073086;28;20285;-63
2023/09/26 03:28:02;;;;;;;3.88;2.25;;;;;;;17.03;90.36;100399.09;5072777;28;20047;-62
2023/09/26 03:30:31;;;;;;;1.10;1.02;;;;;;;17.03;90.67;100401.66;5071616;28;20056;-63
2023/09/26 03:33:00;;;;;;;0.82;0.65;;;;;;;17.03;90.69;100403.38;5072976;28;20472;-62
2023/09/26 03:35:29;;;;;;;1.30;1.15;;;;;;;17.05;90.75;100406.78;5072732;28;20045;-62
2023/09/26 03:37:59;;;;;;;6.60;1.80;;;;;;;17.05;90.83;100401.63;5076411;28;20059;-62
2023/09/26 03:40:29;;;;;;;1.10;1.00;;;;;;;17.06;91.02;100404.19;5076350;28;20278;-63
2023/09/26 03:42:59;;;;;;;1.02;0.98;;;;;;;17.04;91.01;100400.78;5076068;28;20057;-62
2023/09/26 03:45:28;;;;;;;1.75;1.40;;;;;;;17.06;91.14;100398.19;5075994;28;20122;-62
2023/09/26 03:47:58;;;;;;;0.75;0.75;;;;;;;17.04;91.14;100400.78;5076100;28;20110;-62
2023/09/26 03:50:27;;;;;;;1.42;1.23;;;;;;;16.99;91.20;100397.41;5076362;28;20162;-62
2023/09/26 03:52:56;;;;;;;0.55;0.55;;;;;;;16.97;91.20;100394.00;5075999;28;20571;-62
2023/09/26 03:55:26;;;;;;;1.80;1.25;;;;;;;16.93;91.45;100383.75;5075861;28;20087;-62
2023/09/26 03:57:55;;;;;;;0.60;0.60;;;;;;;16.95;91.47;100393.19;5076305;28;20059;-62
2023/09/26 04:00:27;;;;;;;0.50;0.50;;;;;;;16.96;91.82;100386.31;5075931;28;20041;-62
2023/09/26 04:02:56;;;;;;;2.40;1.75;;;;;;;16.95;91.79;100380.28;5075101;28;20405;-62
2023/09/26 04:05:26;;;;;;;2.22;1.80;;;;;;;16.93;91.82;100379.47;5075884;28;20049;-63
2023/09/26 04:07:55;;;;;;;1.15;1.05;;;;;;;16.91;91.91;100388.97;5075757;28;20404;-62
2023/09/26 04:10:24;;;;;;;1.20;0.93;;;;;;;16.90;91.99;100382.09;5076004;28;20392;-60
2023/09/26 04:12:54;;;;;;;1.10;1.00;;;;;;;16.90;92.40;100382.09;5075970;28;20446;-60
2023/09/26 04:15:23;;;;;;;2.58;0.98;;;;;;;16.92;92.35;100385.47;5075919;28;20037;-62
2023/09/26 04:17:52;;;;;;;2.70;0.70;;;;;;;16.94;92.63;100388.88;5075571;28;20045;-62
2023/09/26 04:20:21;;;;;;;2.05;1.40;;;;;;;16.98;92.92;100382.81;5075833;28;20048;-62
2023/09/26 04:23:05;;;;;;;1.10;0.80;;;;;;;17.00;92.48;100383.66;5075425;28;20211;-62
2023/09/26 04:25:35;;;;;;;2.15;1.08;;;;;;;16.99;92.40;100391.44;5075382;28;20040;-62
2023/09/26 04:28:07;;;;;;;1.48;1.30;;;;;;;16.99;92.48;100387.09;5075600;28;20045;-63
2023/09/26 04:30:38;;;;;;;0.50;0.50;;;;;;;16.99;92.50;100391.44;5075462;28;20056;-63
2023/09/26 04:33:08;;;;;;;0.70;0.70;;;;;;;17.00;92.32;100393.09;5075341;28;20075;-62
2023/09/26 04:35:37;;;;;;;1.20;1.08;;;;;;;16.98;92.18;100395.72;5075163;28;20044;-62
2023/09/26 04:38:06;;;;;;;0.98;0.82;;;;;;;16.98;92.21;100395.72;5075250;28;20044;-62
2023/09/26 04:40:35;;;;;;;1.17;1.05;;;;;;;16.97;92.22;100394.00;5075391;28;20466;-62
2023/09/26 04:43:06;;;;;;;1.50;1.33;;;;;;;16.95;91.99;100406.06;5074998;28;20062;-63
2023/09/26 04:45:35;;;;;;;8.52;2.42;;;;;;;16.96;91.74;100402.63;5074958;28;20053;-62
2023/09/26 04:48:04;;;;;;;0.85;0.82;;;;;;;16.98;91.69;100406.03;5075208;28;20433;-62
2023/09/26 04:50:34;;;;;;;1.73;1.38;;;;;;;16.97;91.22;100399.16;5075008;28;20064;-62
2023/09/26 04:53:02;;;;;;;2.00;1.75;;;;;;;16.96;91.36;100405.22;5074846;28;20052;-63
2023/09/26 04:55:31;;;;;;;1.13;1.00;;;;;;;16.97;91.34;100409.47;5074659;28;20040;-63
2023/09/26 04:58:00;;;;;;;1.45;1.35;;;;;;;16.97;91.38;100399.16;5074716;28;20040;-62
2023/09/26 05:00:32;;;;;;;0.75;0.70;;;;;;;16.96;91.16;100397.47;5074713;28;20102;-62
2023/09/26 05:03:01;;;;;;;1.40;1.23;;;;;;;16.98;91.27;100394.88;5074736;28;20048;-62
2023/09/26 05:05:30;;;;;;;1.95;1.67;;;;;;;16.96;91.16;100392.31;5074544;28;20101;-62
2023/09/26 05:07:59;;;;;;;1.10;1.00;;;;;;;16.98;91.00;100393.16;5074544;28;20044;-62
2023/09/26 05:10:28;;;;;;;0.80;0.73;;;;;;;17.01;91.02;100398.22;5074515;28;20049;-62
2023/09/26 05:12:56;;;;;;;1.25;1.13;;;;;;;17.03;90.90;100393.94;5075030;28;20037;-62
2023/09/26 05:15:34;;;;;;;1.35;1.10;;;;;;;17.02;91.07;100394.78;5074601;28;20135;-62
2023/09/26 05:18:05;;;;;;;1.70;1.50;;;;;;;17.05;90.87;100392.16;5074366;28;20518;-62
2023/09/26 05:20:36;;;;;;;1.35;1.23;;;;;;;17.02;90.99;100392.22;5074665;28;20056;-62
2023/09/26 05:23:05;;;;;;;0.65;0.65;;;;;;;17.05;90.91;100391.31;5074328;28;20079;-62
2023/09/26 05:25:35;;;;;;;1.88;1.73;;;;;;;17.10;91.25;100389.53;5074247;28;20065;-62
2023/09/26 05:28:05;;;;;;;1.63;1.52;;;;;;;17.13;91.24;100392.06;5074241;28;20048;-62
2023/09/26 05:30:37;;;;;;;0.80;0.80;;;;;;;17.16;91.13;100390.25;5074475;28;20036;-62
2023/09/26 05:33:06;;;;;;;1.45;1.35;;;;;;;17.24;91.25;100392.72;5073237;28;20132;-62
2023/09/26 05:35:35;;;;;;;0.90;0.80;;;;;;;17.27;91.13;100393.53;5074002;28;20086;-62
2023/09/26 05:38:04;;;;;;;1.10;1.00;;;;;;;17.32;91.12;100396.88;5074127;28;20036;-62
2023/09/26 05:40:33;;;;;;;1.35;1.05;;;;;;;17.33;91.16;100398.59;5074819;28;20067;-62
2023/09/26 05:43:02;;;;;;;0.57;0.57;;;;;;;17.40;91.10;100395.03;5073670;28;20041;-62
2023/09/26 05:45:31;;;;;;;0.82;0.82;;;;;;;17.48;90.94;100399.19;5074160;28;20052;-62
2023/09/26 05:48:01;;;;;;;1.17;1.10;;;;;;;17.53;90.91;100393.13;5072699;28;20094;-63
2023/09/26 05:50:30;;;;;;;1.40;1.30;;;;;;;17.61;91.04;100395.56;5073585;28;20067;-62
2023/09/26 05:53:00;;;;;;;0.87;0.87;;;;;;;17.67;91.00;100392.88;5074026;28;20503;-62
2023/09/26 05:55:29;;;;;;;1.10;0.90;;;;;;;17.75;90.87;100391.00;5072618;28;20122;-62
2023/09/26 05:57:58;;;;;;;1.73;1.60;;;;;;;17.80;90.78;100394.34;5073567;28;20530;-62
2023/09/26 06:00:27;;;;;;;2.00;1.52;;;;;;;17.84;90.56;100390.81;5073146;28;20288;-62
2023/09/26 06:02:56;;;;;;;0.80;0.80;;;;;;;17.90;90.54;100391.56;5073920;28;20029;-62
2023/09/26 06:05:27;;;;;;;0.98;0.90;;;;;;;17.96;90.41;100395.75;5073895;28;20029;-62
2023/09/26 06:07:56;;;;;;;2.00;1.60;;;;;;;18.04;90.46;100393.91;5073806;28;20132;-62
2023/09/26 06:10:25;;;;;;;3.33;2.72;;;;;;;18.12;90.29;100394.56;5073465;28;20098;-62
2023/09/26 06:12:54;;;;;;;0.60;0.60;;;;;;;18.17;90.23;100387.59;5073453;28;20047;-63
2023/09/26 06:15:23;;;;;;;0.70;0.70;;;;;;;18.19;89.92;100393.56;5073527;28;20404;-63
2023/09/26 06:17:57;;;;;;;1.02;0.88;;;;;;;18.25;89.71;100393.47;5075434;28;20519;-63
2023/09/26 06:20:30;;;;;;;0.70;0.70;;;;;;;18.32;89.68;100389.00;5072530;28;20037;-63
2023/09/26 06:22:59;;;;;;;1.15;1.05;;;;;;;18.41;89.76;100379.31;5073612;28;20052;-63
2023/09/26 06:25:28;;;;;;;3.30;1.83;;;;;;;18.51;89.23;100385.19;5073340;28;20049;-63
2023/09/26 06:28:08;;;;;;;2.50;1.83;;;;;;;18.54;89.07;100385.97;5072776;28;20045;-63
2023/09/26 06:30:37;;;;;;;0.93;0.93;;;;;;;18.58;89.03;100386.75;5073879;28;20040;-63
2023/09/26 06:33:06;;;;;;;1.38;1.27;;;;;;;18.63;88.79;100385.75;5073973;28;20116;-63
2023/09/26 06:35:36;;;;;;;1.13;1.02;;;;;;;18.69;88.68;100390.78;5073201;28;20044;-63
2023/09/26 06:38:05;;;;;;;2.13;1.17;;;;;;;18.77;88.48;100387.16;5072950;28;20070;-63
2023/09/26 06:40:34;;;;;;;15.40;3.97;;;;;;;18.85;88.25;100380.09;5075292;28;20036;-63
2023/09/26 06:43:03;;;;;;;0.60;0.60;;;;;;;18.88;88.08;100387.81;5072458;28;20399;-63
2023/09/26 06:45:31;;;;;;;0.77;0.77;;;;;;;18.89;87.84;100381.72;5073410;28;20416;-63
2023/09/26 06:48:00;;;;;;;1.30;1.20;;;;;;;18.92;87.71;100381.66;5072503;28;20355;-63
2023/09/26 06:50:29;;;;;;;1.17;1.08;;;;;;;19.06;87.59;100390.78;5073169;28;20047;-63
2023/09/26 06:53:00;;;;;;;1.88;1.33;;;;;;;19.19;87.40;100396.53;5074209;28;20068;-63
2023/09/26 06:55:29;;;;;;;1.33;1.00;;;;;;;19.32;87.10;100395.34;5073441;28;20049;-63
2023/09/26 06:57:57;;;;;;;0.80;0.80;;;;;;;19.39;86.54;100394.31;5073051;28;20529;-62
2023/09/26 07:00:26;;;;;;;1.38;1.27;;;;;;;19.46;86.23;100390.69;5073376;28;20037;-63
2023/09/26 07:02:55;;;;;;;1.73;1.37;;;;;;;19.53;85.52;100392.22;5072229;28;20049;-63
2023/09/26 07:05:26;;;;;;;1.63;1.33;;;;;;;19.62;85.18;100386.84;5074183;28;20044;-63
2023/09/26 07:07:56;;;;;;;1.17;1.05;;;;;;;19.72;84.58;100377.94;5073407;28;20040;-63
2023/09/26 07:10:27;;;;;;;1.90;1.20;;;;;;;19.81;84.20;100382.88;5072216;28;20070;-63
2023/09/26 07:12:56;;;;;;;1.20;1.10;;;;;;;19.88;83.39;100379.22;5076588;28;20057;-62
2023/09/26 07:15:28;;;;;;;0.97;0.97;;;;;;;20.00;83.17;100381.47;5076846;28;20040;-63
2023/09/26 07:17:58;;;;;;;1.30;1.20;;;;;;;20.06;82.86;100378.69;5076578;28;20090;-63
2023/09/26 07:20:28;;;;;;;0.63;0.63;;;;;;;20.17;82.46;100374.94;5075852;28;20048;-62
2023/09/26 07:22:57;;;;;;;1.27;1.17;;;;;;;20.18;81.92;100377.47;5075825;28;20053;-63
2023/09/26 07:25:28;;;;;;;0.90;0.90;;;;;;;20.23;81.51;100380.00;5076446;28;20041;-63
2023/09/26 07:27:57;;;;;;;1.40;0.98;;;;;;;20.32;80.99;100384.91;5076664;28;20292;-63
2023/09/26 07:30:25;;;;;;;1.02;0.85;;;;;;;20.41;80.83;100384.63;5076028;28;20111;-63
2023/09/26 07:32:54;;;;;;;0.95;0.88;;;;;;;20.50;80.73;100386.94;5076289;28;20087;-62
2023/09/26 07:35:25;;;;;;;0.73;0.73;;;;;;;20.61;80.67;100387.50;5076326;28;20037;-62
2023/09/26 07:37:54;;;;;;;0.60;0.60;;;;;;;20.74;80.54;100394.00;5076565;28;20041;-63
2023/09/26 07:40:23;;;;;;;0.95;0.77;;;;;;;20.81;80.17;100389.47;5075032;28;20047;-63
2023/09/26 07:42:54;;;;;;;1.25;1.15;;;;;;;20.88;80.08;100390.97;5076025;28;20080;-63
2023/09/26 07:45:23;;;;;;;1.65;1.23;;;;;;;21.03;79.81;100387.88;5076132;28;20059;-63
2023/09/26 07:47:52;;;;;;;1.50;1.40;;;;;;;21.03;79.10;100386.16;5076096;28;20051;-62
2023/09/26 07:50:21;;;;;;;1.13;1.02;;;;;;;21.09;78.74;100385.97;5075491;28;20564;-63
2023/09/26 07:52:50;;;;;;;1.33;0.75;;;;;;;21.18;78.53;100383.09;5076491;28;20404;-63
2023/09/26 07:55:18;;;;;;;2.50;1.83;;;;;;;21.27;77.98;100382.78;5078514;28;20048;-63
2023/09/26 07:57:47;;;;;;;5.15;2.05;;;;;;;21.38;77.69;100383.28;5076720;28;20448;-63
2023/09/26 08:00:18;;;;;;;2.58;2.00;;;;;;;21.48;77.20;100382.94;5055844;28;20041;-63
2023/09/26 08:02:46;;;;;;;1.35;1.25;;;;;;;21.53;76.73;100381.06;5060856;28;20052;-63
2023/09/26 08:05:16;;;;;;;5.35;2.88;;;;;;;21.60;76.27;100385.13;5075298;28;20044;-63
2023/09/26 08:07:45;;;;;;;0.98;0.88;;;;;;;21.69;75.99;100382.25;5075672;28;20436;-63
2023/09/26 08:10:14;;;;;;;3.00;1.33;;;;;;;21.78;75.72;100385.38;5076591;28;20044;-64
2023/09/26 08:12:43;;;;;;;0.63;0.63;;;;;;;21.84;75.19;100381.69;5076771;28;20032;-63
2023/09/26 08:15:13;;;;;;;3.10;1.17;;;;;;;21.92;74.74;100379.69;5075594;28;20044;-63
2023/09/26 08:17:43;;;;;;;0.85;0.70;;;;;;;22.01;74.64;100384.56;5075509;28;20484;-64
2023/09/26 08:20:13;;;;;;;0.60;0.60;;;;;;;22.13;74.61;100378.91;5075360;28;20499;-63
2023/09/26 08:22:44;;;;;;;1.02;0.77;;;;;;;22.29;74.49;100380.03;5075310;28;20403;-62
2023/09/26 08:25:13;;;;;;;0.98;0.90;;;;;;;22.37;73.83;100383.22;5075490;28;20491;-62
2023/09/26 08:27:42;;;;;;;1.42;1.33;;;;;;;22.46;73.52;100380.25;5075326;28;20128;-62
2023/09/26 08:30:12;;;;;;;0.82;0.82;;;;;;;22.52;73.08;100385.25;5074797;28;20194;-63
2023/09/26 08:32:43;;;;;;;1.65;0.88;;;;;;;22.61;72.75;100373.66;5075814;28;20415;-63
2023/09/26 08:35:12;;;;;;;1.52;1.23;;;;;;;22.76;72.51;100382.63;5075234;28;20135;-62
2023/09/26 08:37:41;;;;;;;0.80;0.80;;;;;;;22.89;72.25;100378.63;5075205;28;20070;-62
2023/09/26 08:40:11;;;;;;;;;;;;;;;23.04;72.16;100386.66;5075001;28;20106;-62
2023/09/26 08:42:45;;;;;;;1.00;0.90;;;;;;;23.16;71.82;100385.31;5074903;28;19927;-63
2023/09/26 08:45:15;;;;;;;1.25;1.08;;;;;;;23.30;71.35;100382.97;5074600;28;20040;-62
2023/09/26 08:47:46;;;;;;;0.77;0.65;;;;;;;23.41;70.24;100380.84;5075532;28;20452;-63
2023/09/26 08:50:15;;;;;;;0.80;0.80;;;;;;;23.51;70.10;100376.06;5075181;28;20599;-63
2023/09/26 08:52:44;;;;;;;2.25;1.65;;;;;;;23.57;69.14;100376.66;5076123;28;20048;-62
2023/09/26 08:55:13;;;;;;;2.28;1.70;;;;;;;23.62;68.52;100374.69;5075690;28;20048;-62
2023/09/26 08:57:42;;;;;;;3.22;2.45;;;;;;;23.68;68.18;100374.41;5074959;28;20403;-62
2023/09/26 09:00:14;;;;;;;0.88;0.88;;;;;;;23.75;67.88;100373.28;5073943;28;20053;-62
2023/09/26 09:02:43;;;;;;;2.78;1.00;;;;;;;23.89;67.97;100368.28;5074747;28;20122;-63
2023/09/26 09:05:18;;;;;;;1.20;0.85;;;;;;;24.02;67.97;100365.13;5074663;28;20059;-62
2023/09/26 09:07:48;;;;;;;4.70;2.13;;;;;;;24.09;67.26;100359.59;5074013;28;20102;-62
2023/09/26 09:10:17;;;;;;;0.75;0.75;;;;;;;24.20;67.17;100362.56;5074587;28;20040;-62
2023/09/26 09:12:49;;;;;;;1.20;0.73;;;;;;;24.28;67.07;100359.63;5074547;28;20055;-62
2023/09/26 09:15:24;;;;;;;2.20;1.60;;;;;;;24.46;67.27;100350.91;5074438;28;20045;-62
2023/09/26 09:17:53;;;;;;;1.90;1.55;;;;;;;24.55;66.28;100360.94;5072862;28;20046;-62
2023/09/26 09:20:32;;;;;;;2.55;1.88;;;;;;;24.61;65.79;100364.13;5074240;28;20045;-62
2023/09/26 09:23:03;;;;;;;0.75;0.75;;;;;;;24.66;66.07;100350.84;5074316;28;20122;-62
2023/09/26 09:25:34;;;;;;;1.02;0.90;;;;;;;24.66;65.91;100350.84;5074579;28;20134;-62
2023/09/26 09:28:06;;;;;;;13.85;8.82;;;;;;;24.67;65.72;100351.69;5071473;28;20044;-62
2023/09/26 09:30:39;;;;;;;1.52;1.33;;;;;;;24.82;65.47;100353.56;5073000;28;20056;-65
2023/09/26 09:33:09;;;;;;;1.10;1.02;;;;;;;25.00;65.82;100356.13;5075803;28;20495;-62
2023/09/26 09:35:41;;;;;;;1.63;1.10;;;;;;;24.97;65.40;100350.22;5073315;28;20043;-62
2023/09/26 09:38:12;;;;;;;2.53;1.80;;;;;;;25.09;65.29;100350.47;5073986;28;20080;-62
2023/09/26 09:40:43;;;;;;;0.93;0.93;;;;;;;25.13;64.53;100346.78;5073989;28;20090;-62
2023/09/26 09:43:12;;;;;;;0.50;0.50;;;;;;;25.31;64.70;100345.03;5073953;28;20052;-62
2023/09/26 09:45:43;;;;;;;1.33;1.08;;;;;;;25.56;64.94;100339.41;5073322;28;20101;-62
2023/09/26 09:48:14;;;;;;;2.90;2.17;;;;;;;25.75;64.29;100340.97;5053864;28;20045;-62
2023/09/26 09:50:47;;;;;;;2.60;1.30;;;;;;;25.80;63.59;100335.50;5053947;28;20041;-62
2023/09/26 09:53:22;;;;;;;2.35;1.58;;;;;;;25.86;63.32;100337.81;5053895;28;20072;-62
2023/09/26 09:55:53;;;;;;;1.30;1.13;;;;;;;26.06;63.65;100334.97;5070091;28;20554;-62
2023/09/26 09:58:29;;;;;;;1.05;0.95;;;;;;;26.15;63.30;100339.75;5071916;28;20048;-62
2023/09/26 10:01:00;;;;;;;0.73;0.73;;;;;;;26.19;63.29;100330.81;5073916;28;20090;-63
2023/09/26 10:03:30;;;;;;;1.90;1.73;;;;;;;26.06;62.27;100329.72;5073658;28;20051;-62
2023/09/26 10:06:03;;;;;;;1.17;1.05;;;;;;;26.04;62.08;100331.59;5074772;28;20041;-62
2023/09/26 10:08:33;;;;;;;0.68;0.68;;;;;;;26.09;62.03;100324.34;5073559;28;20500;-62
2023/09/26 10:11:04;;;;;;;4.03;1.40;;;;;;;26.15;61.77;100325.81;5072351;28;20407;-62
2023/09/26 10:13:36;;;;;;;1.02;0.93;;;;;;;26.21;61.83;100321.09;5073860;28;20106;-62
2023/09/26 10:16:06;;;;;;;;;;;;;;;26.30;61.83;100317.97;5073832;28;20036;-62
2023/09/26 10:18:40;;;;;;;4.32;1.08;;;;;;;26.30;60.81;100320.56;5073837;28;19920;-62
2023/09/26 10:21:25;;;;;;;0.85;0.75;;;;;;;26.38;60.72;100323.63;5076731;28;20084;-62
2023/09/26 10:24:17;;;;;;;2.10;1.75;;;;;;;26.45;60.80;100317.13;5073053;28;20066;-62
2023/09/26 10:26:47;;;;;;;0.70;0.70;;;;;;;26.49;60.69;100316.00;5073683;28;20040;-62
2023/09/26 10:29:24;;;;;;;4.28;1.58;;;;;;;26.53;60.22;100320.16;5072494;28;20045;-63
2023/09/26 10:31:56;;;;;;;1.40;1.08;;;;;;;26.47;60.16;100320.50;5073390;28;20056;-62
2023/09/26 10:34:28;;;;;;;0.93;0.90;;;;;;;26.55;60.17;100318.31;5072764;28;20049;-62
2023/09/26 10:37:20;;;;;;;0.88;0.88;;;;;;;26.66;60.36;100309.81;5073189;28;20052;-62
2023/09/26 10:39:50;;;;;;;0.60;0.60;;;;;;;26.94;60.54;100314.38;5072816;28;20121;-63
2023/09/26 10:42:21;;;;;;;0.80;0.80;;;;;;;27.11;60.64;100306.38;5073165;28;20572;-62
2023/09/26 10:44:53;;;;;;;0.98;0.98;;;;;;;27.16;60.64;100309.56;5073695;28;20492;-62
2023/09/26 10:47:23;;;;;;;1.65;1.05;;;;;;;27.12;60.17;100308.03;5077601;28;20094;-62
2023/09/26 10:49:52;;;;;;;2.42;1.83;;;;;;;27.23;60.97;100305.66;5077203;28;20248;-62
2023/09/26 10:52:25;;;;;;;0.60;0.60;;;;;;;27.41;60.25;100314.22;5076981;28;20051;-62
2023/09/26 10:54:54;;;;;;;0.73;0.73;;;;;;;27.60;60.21;100299.06;5077419;28;20045;-62
2023/09/26 10:57:23;;;;;;;0.77;0.77;;;;;;;27.72;59.33;100303.56;5077068;28;20056;-62
2023/09/26 10:59:52;;;;;;;0.77;0.77;;;;;;;27.78;58.86;100304.03;5076113;28;20041;-63
2023/09/26 11:02:23;;;;;;;1.00;0.90;;;;;;;27.77;58.74;100297.09;5077355;28;20118;-63
2023/09/26 11:04:52;;;;;;;0.63;0.63;;;;;;;27.83;58.21;100306.38;5076962;28;20045;-62
2023/09/26 11:07:22;;;;;;;0.80;0.80;;;;;;;28.01;58.76;100299.16;5077250;28;20037;-62
2023/09/26 11:09:52;;;;;;;1.17;1.00;;;;;;;28.13;58.69;100290.50;5076142;28;20074;-62
2023/09/26 11:12:21;;;;;;;0.60;0.60;;;;;;;28.17;58.28;100292.03;5076865;28;20052;-63
2023/09/26 11:14:50;;;;;;;1.25;1.15;;;;;;;28.19;58.06;100290.13;5076770;28;20575;-63
2023/09/26 11:17:19;;;;;;;;;;;;;;;28.23;57.00;100283.75;5077029;28;20052;-62
2023/09/26 11:19:48;;;;;;;0.85;0.80;;;;;;;28.26;56.45;100291.44;5076002;28;19931;-62
2023/09/26 11:22:17;;;;;;;1.13;0.93;;;;;;;28.15;56.39;100286.84;5076662;28;20038;-62
2023/09/26 11:24:45;;;;;;;2.58;2.15;;;;;;;28.18;56.34;100283.19;5077408;28;20522;-62
2023/09/26 11:27:16;;;;;;;1.35;1.13;;;;;;;28.11;56.08;100279.28;5076572;28;20523;-62
2023/09/26 11:29:46;;;;;;;1.42;1.10;;;;;;;28.34;55.78;100283.88;5076104;28;20071;-63
2023/09/26 11:32:18;;;;;;;1.52;1.23;;;;;;;28.35;55.19;100280.34;5076455;28;20098;-62
2023/09/26 11:34:48;;;;;;;1.85;1.35;;;;;;;28.22;55.12;100276.81;5076741;28;20041;-62
2023/09/26 11:37:17;;;;;;;2.28;1.88;;;;;;;28.20;54.83;100273.44;5076337;28;20123;-62
2023/09/26 11:39:51;;;;;;;1.00;1.00;;;;;;;28.26;54.74;100267.78;5074604;28;20129;-63
2023/09/26 11:42:22;;;;;;;0.80;0.80;;;;;;;28.42;54.37;100269.34;5074999;28;20044;-62